sensor_id;sensor_type;location;lat;lon;timestamp;P1;durP1;ratioP1;P2;durP2;ratioP2
71083;SDS011;58741;52.672;13.548;2024-01-27T00:00:48;8.20;;;1.02;;
71083;SDS011;58741;52.672;13.548;2024-01-27T00:03:15;3.67;;;1.15;;
71083;SDS011;58741;52.672;13.548;2024-01-27T00:05:42;3.05;;;1.05;;
71083;SDS011;58741;52.672;13.548;2024-01-27T00:08:09;5.70;;;1.35;;
71083;SDS011;58741;52.672;13.548;2024-01-27T00:10:35;3.58;;;0.95;;
71083;SDS011;58741;52.672;13.548;2024-01-27T00:13:02;4.18;;;0.98;;
71083;SDS011;58741;52.672;13.548;2024-01-27T00:15:29;9.40;;;1.55;;
71083;SDS011;58741;52.672;13.548;2024-01-27T00:17:56;7.38;;;1.15;;
71083;SDS011;58741;52.672;13.548;2024-01-27T00:20:23;7.70;;;1.45;;
71083;SDS011;58741;52.672;13.548;2024-01-27T00:22:49;4.93;;;1.10;;
71083;SDS011;58741;52.672;13.548;2024-01-27T00:25:16;8.48;;;1.33;;
71083;SDS011;58741;52.672;13.548;2024-01-27T00:27:43;5.65;;;1.60;;
71083;SDS011;58741;52.672;13.548;2024-01-27T00:30:10;6.13;;;1.58;;
71083;SDS011;58741;52.672;13.548;2024-01-27T00:32:38;7.13;;;1.70;;
71083;SDS011;58741;52.672;13.548;2024-01-27T00:35:04;9.85;;;1.60;;
71083;SDS011;58741;52.672;13.548;2024-01-27T00:37:33;4.13;;;1.33;;
71083;SDS011;58741;52.672;13.548;2024-01-27T00:40:00;8.23;;;1.27;;
71083;SDS011;58741;52.672;13.548;2024-01-27T00:42:27;7.68;;;1.40;;
71083;SDS011;58741;52.672;13.548;2024-01-27T00:44:53;9.68;;;1.67;;
71083;SDS011;58741;52.672;13.548;2024-01-27T00:47:20;11.23;;;1.88;;
71083;SDS011;58741;52.672;13.548;2024-01-27T00:49:47;8.80;;;1.52;;
71083;SDS011;58741;52.672;13.548;2024-01-27T00:52:14;3.05;;;1.23;;
71083;SDS011;58741;52.672;13.548;2024-01-27T00:54:41;6.05;;;1.52;;
71083;SDS011;58741;52.672;13.548;2024-01-27T00:57:07;11.98;;;1.88;;
71083;SDS011;58741;52.672;13.548;2024-01-27T00:59:34;13.23;;;1.67;;
71083;SDS011;58741;52.672;13.548;2024-01-27T01:02:00;8.88;;;1.58;;
71083;SDS011;58741;52.672;13.548;2024-01-27T01:04:27;5.25;;;1.45;;
71083;SDS011;58741;52.672;13.548;2024-01-27T01:06:54;13.20;;;1.90;;
71083;SDS011;58741;52.672;13.548;2024-01-27T01:09:22;8.88;;;1.45;;
71083;SDS011;58741;52.672;13.548;2024-01-27T01:11:49;5.07;;;1.23;;
71083;SDS011;58741;52.672;13.548;2024-01-27T01:14:15;2.28;;;0.90;;
71083;SDS011;58741;52.672;13.548;2024-01-27T01:16:42;5.15;;;1.13;;
71083;SDS011;58741;52.672;13.548;2024-01-27T01:19:09;6.18;;;1.42;;
71083;SDS011;58741;52.672;13.548;2024-01-27T01:21:36;2.15;;;0.55;;
71083;SDS011;58741;52.672;13.548;2024-01-27T01:24:02;4.32;;;0.82;;
71083;SDS011;58741;52.672;13.548;2024-01-27T01:26:29;6.28;;;0.98;;
71083;SDS011;58741;52.672;13.548;2024-01-27T01:28:56;7.38;;;1.40;;
71083;SDS011;58741;52.672;13.548;2024-01-27T01:31:23;12.82;;;1.73;;
71083;SDS011;58741;52.672;13.548;2024-01-27T01:33:49;9.75;;;1.90;;
71083;SDS011;58741;52.672;13.548;2024-01-27T01:36:16;5.97;;;1.30;;
71083;SDS011;58741;52.672;13.548;2024-01-27T01:38:43;4.50;;;1.27;;
71083;SDS011;58741;52.672;13.548;2024-01-27T01:41:10;5.45;;;1.08;;
71083;SDS011;58741;52.672;13.548;2024-01-27T01:43:37;7.13;;;1.63;;
71083;SDS011;58741;52.672;13.548;2024-01-27T01:46:03;5.22;;;1.17;;
71083;SDS011;58741;52.672;13.548;2024-01-27T01:48:31;10.63;;;1.83;;
71083;SDS011;58741;52.672;13.548;2024-01-27T01:50:58;8.68;;;1.70;;
71083;SDS011;58741;52.672;13.548;2024-01-27T01:53:26;12.07;;;1.70;;
71083;SDS011;58741;52.672;13.548;2024-01-27T01:55:53;6.90;;;0.98;;
71083;SDS011;58741;52.672;13.548;2024-01-27T01:58:21;6.32;;;1.17;;
71083;SDS011;58741;52.672;13.548;2024-01-27T02:00:48;10.15;;;1.38;;
71083;SDS011;58741;52.672;13.548;2024-01-27T02:03:14;9.00;;;1.30;;
71083;SDS011;58741;52.672;13.548;2024-01-27T02:05:41;6.30;;;1.30;;
71083;SDS011;58741;52.672;13.548;2024-01-27T02:08:08;3.70;;;1.10;;
71083;SDS011;58741;52.672;13.548;2024-01-27T02:10:35;3.63;;;1.30;;
71083;SDS011;58741;52.672;13.548;2024-01-27T02:13:20;7.80;;;1.42;;
71083;SDS011;58741;52.672;13.548;2024-01-27T02:15:49;8.77;;;2.40;;
71083;SDS011;58741;52.672;13.548;2024-01-27T02:18:16;4.90;;;1.10;;
71083;SDS011;58741;52.672;13.548;2024-01-27T02:20:44;9.10;;;1.45;;
71083;SDS011;58741;52.672;13.548;2024-01-27T02:23:11;9.10;;;1.95;;
71083;SDS011;58741;52.672;13.548;2024-01-27T02:25:37;5.38;;;1.20;;
71083;SDS011;58741;52.672;13.548;2024-01-27T02:28:04;6.72;;;2.13;;
71083;SDS011;58741;52.672;13.548;2024-01-27T02:30:31;9.70;;;1.40;;
71083;SDS011;58741;52.672;13.548;2024-01-27T02:32:58;8.38;;;1.95;;
71083;SDS011;58741;52.672;13.548;2024-01-27T02:35:25;9.15;;;1.85;;
71083;SDS011;58741;52.672;13.548;2024-01-27T02:37:52;6.35;;;1.30;;
71083;SDS011;58741;52.672;13.548;2024-01-27T02:40:19;10.15;;;1.48;;
71083;SDS011;58741;52.672;13.548;2024-01-27T02:42:45;3.20;;;1.02;;
71083;SDS011;58741;52.672;13.548;2024-01-27T02:45:12;3.60;;;1.40;;
71083;SDS011;58741;52.672;13.548;2024-01-27T02:47:39;5.07;;;1.55;;
71083;SDS011;58741;52.672;13.548;2024-01-27T02:50:06;6.53;;;1.27;;
71083;SDS011;58741;52.672;13.548;2024-01-27T02:52:34;5.82;;;1.40;;
71083;SDS011;58741;52.672;13.548;2024-01-27T02:55:00;5.60;;;1.55;;
71083;SDS011;58741;52.672;13.548;2024-01-27T02:57:27;9.20;;;1.67;;
71083;SDS011;58741;52.672;13.548;2024-01-27T02:59:54;8.07;;;1.30;;
71083;SDS011;58741;52.672;13.548;2024-01-27T03:02:21;3.60;;;1.30;;
71083;SDS011;58741;52.672;13.548;2024-01-27T03:04:48;6.97;;;1.63;;
71083;SDS011;58741;52.672;13.548;2024-01-27T03:07:14;10.90;;;1.92;;
71083;SDS011;58741;52.672;13.548;2024-01-27T03:09:41;3.78;;;1.52;;
71083;SDS011;58741;52.672;13.548;2024-01-27T03:12:08;8.15;;;1.75;;
71083;SDS011;58741;52.672;13.548;2024-01-27T03:14:35;8.68;;;2.05;;
71083;SDS011;58741;52.672;13.548;2024-01-27T03:17:01;4.82;;;1.08;;
71083;SDS011;58741;52.672;13.548;2024-01-27T03:19:29;5.25;;;1.10;;
71083;SDS011;58741;52.672;13.548;2024-01-27T03:21:55;7.07;;;1.63;;
71083;SDS011;58741;52.672;13.548;2024-01-27T03:24:22;10.07;;;1.27;;
71083;SDS011;58741;52.672;13.548;2024-01-27T03:26:49;5.30;;;1.42;;
71083;SDS011;58741;52.672;13.548;2024-01-27T03:29:15;8.88;;;2.30;;
71083;SDS011;58741;52.672;13.548;2024-01-27T03:31:42;7.07;;;2.22;;
71083;SDS011;58741;52.672;13.548;2024-01-27T03:34:09;2.58;;;1.13;;
71083;SDS011;58741;52.672;13.548;2024-01-27T03:36:36;7.05;;;1.80;;
71083;SDS011;58741;52.672;13.548;2024-01-27T03:39:02;5.22;;;1.10;;
71083;SDS011;58741;52.672;13.548;2024-01-27T03:41:30;11.73;;;2.03;;
71083;SDS011;58741;52.672;13.548;2024-01-27T03:43:57;13.32;;;2.00;;
71083;SDS011;58741;52.672;13.548;2024-01-27T03:46:24;5.25;;;1.38;;
71083;SDS011;58741;52.672;13.548;2024-01-27T03:48:51;5.32;;;1.17;;
71083;SDS011;58741;52.672;13.548;2024-01-27T03:51:18;5.15;;;0.90;;
71083;SDS011;58741;52.672;13.548;2024-01-27T03:53:45;8.45;;;1.75;;
71083;SDS011;58741;52.672;13.548;2024-01-27T03:56:12;9.20;;;2.10;;
71083;SDS011;58741;52.672;13.548;2024-01-27T03:58:39;4.22;;;1.30;;
71083;SDS011;58741;52.672;13.548;2024-01-27T04:01:06;2.28;;;0.93;;
71083;SDS011;58741;52.672;13.548;2024-01-27T04:03:32;4.32;;;1.45;;
71083;SDS011;58741;52.672;13.548;2024-01-27T04:05:59;11.05;;;1.83;;
71083;SDS011;58741;52.672;13.548;2024-01-27T04:08:29;7.65;;;2.20;;
71083;SDS011;58741;52.672;13.548;2024-01-27T04:10:56;11.00;;;1.55;;
71083;SDS011;58741;52.672;13.548;2024-01-27T04:13:24;7.03;;;1.00;;
71083;SDS011;58741;52.672;13.548;2024-01-27T04:15:51;8.10;;;1.75;;
71083;SDS011;58741;52.672;13.548;2024-01-27T04:18:20;6.35;;;1.08;;
71083;SDS011;58741;52.672;13.548;2024-01-27T04:20:46;7.43;;;1.77;;
71083;SDS011;58741;52.672;13.548;2024-01-27T04:23:15;10.85;;;1.70;;
71083;SDS011;58741;52.672;13.548;2024-01-27T04:25:42;12.40;;;1.63;;
71083;SDS011;58741;52.672;13.548;2024-01-27T04:28:09;2.85;;;1.05;;
71083;SDS011;58741;52.672;13.548;2024-01-27T04:30:38;9.25;;;1.70;;
71083;SDS011;58741;52.672;13.548;2024-01-27T04:33:05;5.95;;;1.75;;
71083;SDS011;58741;52.672;13.548;2024-01-27T04:35:34;4.60;;;1.80;;
71083;SDS011;58741;52.672;13.548;2024-01-27T04:38:00;5.47;;;1.58;;
71083;SDS011;58741;52.672;13.548;2024-01-27T04:40:27;7.18;;;1.10;;
71083;SDS011;58741;52.672;13.548;2024-01-27T04:42:54;6.22;;;1.65;;
71083;SDS011;58741;52.672;13.548;2024-01-27T04:45:21;5.35;;;1.17;;
71083;SDS011;58741;52.672;13.548;2024-01-27T04:47:48;5.65;;;0.98;;
71083;SDS011;58741;52.672;13.548;2024-01-27T04:50:14;3.38;;;1.40;;
71083;SDS011;58741;52.672;13.548;2024-01-27T04:52:41;8.32;;;1.95;;
71083;SDS011;58741;52.672;13.548;2024-01-27T04:55:08;8.85;;;1.38;;
71083;SDS011;58741;52.672;13.548;2024-01-27T04:57:34;5.70;;;1.15;;
71083;SDS011;58741;52.672;13.548;2024-01-27T05:00:01;6.22;;;1.38;;
71083;SDS011;58741;52.672;13.548;2024-01-27T05:02:29;5.13;;;0.98;;
71083;SDS011;58741;52.672;13.548;2024-01-27T05:04:55;6.68;;;1.67;;
71083;SDS011;58741;52.672;13.548;2024-01-27T05:07:22;11.48;;;1.70;;
71083;SDS011;58741;52.672;13.548;2024-01-27T05:09:49;7.28;;;1.95;;
71083;SDS011;58741;52.672;13.548;2024-01-27T05:12:16;7.32;;;1.48;;
71083;SDS011;58741;52.672;13.548;2024-01-27T05:14:43;3.97;;;1.40;;
71083;SDS011;58741;52.672;13.548;2024-01-27T05:17:11;7.05;;;1.25;;
71083;SDS011;58741;52.672;13.548;2024-01-27T05:19:37;5.28;;;1.35;;
71083;SDS011;58741;52.672;13.548;2024-01-27T05:22:04;7.30;;;1.30;;
71083;SDS011;58741;52.672;13.548;2024-01-27T05:24:31;4.97;;;1.40;;
71083;SDS011;58741;52.672;13.548;2024-01-27T05:26:58;9.68;;;1.08;;
71083;SDS011;58741;52.672;13.548;2024-01-27T05:29:28;7.80;;;1.33;;
71083;SDS011;58741;52.672;13.548;2024-01-27T05:31:55;1.77;;;0.85;;
71083;SDS011;58741;52.672;13.548;2024-01-27T05:34:21;9.52;;;1.20;;
71083;SDS011;58741;52.672;13.548;2024-01-27T05:36:48;6.47;;;1.35;;
71083;SDS011;58741;52.672;13.548;2024-01-27T05:39:15;10.63;;;2.03;;
71083;SDS011;58741;52.672;13.548;2024-01-27T05:41:42;7.22;;;1.52;;
71083;SDS011;58741;52.672;13.548;2024-01-27T05:44:08;8.02;;;1.58;;
71083;SDS011;58741;52.672;13.548;2024-01-27T05:46:35;5.80;;;1.35;;
71083;SDS011;58741;52.672;13.548;2024-01-27T05:49:01;7.18;;;0.93;;
71083;SDS011;58741;52.672;13.548;2024-01-27T05:51:30;3.78;;;1.27;;
71083;SDS011;58741;52.672;13.548;2024-01-27T05:53:56;5.88;;;1.02;;
71083;SDS011;58741;52.672;13.548;2024-01-27T05:56:23;2.70;;;1.20;;
71083;SDS011;58741;52.672;13.548;2024-01-27T05:58:50;2.42;;;1.02;;
71083;SDS011;58741;52.672;13.548;2024-01-27T06:01:17;10.70;;;2.15;;
71083;SDS011;58741;52.672;13.548;2024-01-27T06:03:45;8.98;;;1.38;;
71083;SDS011;58741;52.672;13.548;2024-01-27T06:06:12;5.50;;;1.38;;
71083;SDS011;58741;52.672;13.548;2024-01-27T06:08:40;9.98;;;1.77;;
71083;SDS011;58741;52.672;13.548;2024-01-27T06:11:07;4.57;;;1.60;;
71083;SDS011;58741;52.672;13.548;2024-01-27T06:13:35;5.53;;;1.40;;
71083;SDS011;58741;52.672;13.548;2024-01-27T06:16:07;4.82;;;0.95;;
71083;SDS011;58741;52.672;13.548;2024-01-27T06:18:37;4.68;;;1.00;;
71083;SDS011;58741;52.672;13.548;2024-01-27T06:21:05;3.40;;;1.15;;
71083;SDS011;58741;52.672;13.548;2024-01-27T06:23:32;5.38;;;0.93;;
71083;SDS011;58741;52.672;13.548;2024-01-27T06:25:58;5.13;;;1.00;;
71083;SDS011;58741;52.672;13.548;2024-01-27T06:28:25;2.97;;;1.02;;
71083;SDS011;58741;52.672;13.548;2024-01-27T06:30:52;4.32;;;1.25;;
71083;SDS011;58741;52.672;13.548;2024-01-27T06:33:18;4.93;;;1.25;;
71083;SDS011;58741;52.672;13.548;2024-01-27T06:35:45;3.50;;;1.40;;
71083;SDS011;58741;52.672;13.548;2024-01-27T06:38:12;5.75;;;1.67;;
71083;SDS011;58741;52.672;13.548;2024-01-27T06:40:38;3.88;;;1.35;;
71083;SDS011;58741;52.672;13.548;2024-01-27T06:43:05;5.78;;;1.00;;
71083;SDS011;58741;52.672;13.548;2024-01-27T06:45:32;4.30;;;1.27;;
71083;SDS011;58741;52.672;13.548;2024-01-27T06:47:59;7.78;;;2.22;;
71083;SDS011;58741;52.672;13.548;2024-01-27T06:50:25;4.55;;;1.92;;
71083;SDS011;58741;52.672;13.548;2024-01-27T06:52:52;10.90;;;5.43;;
71083;SDS011;58741;52.672;13.548;2024-01-27T06:55:19;9.02;;;2.22;;
71083;SDS011;58741;52.672;13.548;2024-01-27T06:57:45;5.60;;;2.13;;
71083;SDS011;58741;52.672;13.548;2024-01-27T07:00:12;12.38;;;3.17;;
71083;SDS011;58741;52.672;13.548;2024-01-27T07:02:42;7.43;;;2.15;;
71083;SDS011;58741;52.672;13.548;2024-01-27T07:05:10;2.90;;;1.67;;
71083;SDS011;58741;52.672;13.548;2024-01-27T07:07:38;9.63;;;2.55;;
71083;SDS011;58741;52.672;13.548;2024-01-27T07:10:05;3.42;;;1.33;;
71083;SDS011;58741;52.672;13.548;2024-01-27T07:12:34;10.40;;;1.95;;
71083;SDS011;58741;52.672;13.548;2024-01-27T07:15:00;6.32;;;1.50;;
71083;SDS011;58741;52.672;13.548;2024-01-27T07:17:28;4.03;;;1.45;;
71083;SDS011;58741;52.672;13.548;2024-01-27T07:19:55;5.25;;;1.05;;
71083;SDS011;58741;52.672;13.548;2024-01-27T07:22:22;6.05;;;1.50;;
71083;SDS011;58741;52.672;13.548;2024-01-27T07:24:50;6.43;;;1.52;;
71083;SDS011;58741;52.672;13.548;2024-01-27T07:27:18;6.85;;;1.50;;
71083;SDS011;58741;52.672;13.548;2024-01-27T07:29:45;8.85;;;2.00;;
71083;SDS011;58741;52.672;13.548;2024-01-27T07:32:12;8.25;;;1.15;;
71083;SDS011;58741;52.672;13.548;2024-01-27T07:34:40;5.40;;;1.58;;
71083;SDS011;58741;52.672;13.548;2024-01-27T07:37:07;7.30;;;1.20;;
71083;SDS011;58741;52.672;13.548;2024-01-27T07:39:34;4.72;;;1.40;;
71083;SDS011;58741;52.672;13.548;2024-01-27T07:42:01;5.68;;;1.40;;
71083;SDS011;58741;52.672;13.548;2024-01-27T07:44:28;11.63;;;2.05;;
71083;SDS011;58741;52.672;13.548;2024-01-27T07:46:56;2.40;;;1.02;;
71083;SDS011;58741;52.672;13.548;2024-01-27T07:49:22;9.57;;;1.85;;
71083;SDS011;58741;52.672;13.548;2024-01-27T07:51:49;6.88;;;1.40;;
71083;SDS011;58741;52.672;13.548;2024-01-27T07:54:16;7.20;;;1.50;;
71083;SDS011;58741;52.672;13.548;2024-01-27T07:56:43;5.82;;;1.45;;
71083;SDS011;58741;52.672;13.548;2024-01-27T07:59:09;9.77;;;1.95;;
71083;SDS011;58741;52.672;13.548;2024-01-27T08:01:40;5.35;;;1.15;;
71083;SDS011;58741;52.672;13.548;2024-01-27T08:04:07;6.47;;;1.17;;
71083;SDS011;58741;52.672;13.548;2024-01-27T08:06:45;6.95;;;1.58;;
71083;SDS011;58741;52.672;13.548;2024-01-27T08:09:16;3.50;;;1.27;;
71083;SDS011;58741;52.672;13.548;2024-01-27T08:11:44;3.47;;;0.82;;
71083;SDS011;58741;52.672;13.548;2024-01-27T08:14:11;4.40;;;1.40;;
71083;SDS011;58741;52.672;13.548;2024-01-27T08:16:37;6.93;;;1.48;;
71083;SDS011;58741;52.672;13.548;2024-01-27T08:19:04;3.65;;;1.27;;
71083;SDS011;58741;52.672;13.548;2024-01-27T08:21:31;6.25;;;1.38;;
71083;SDS011;58741;52.672;13.548;2024-01-27T08:23:59;8.50;;;1.45;;
71083;SDS011;58741;52.672;13.548;2024-01-27T08:26:26;13.60;;;1.95;;
71083;SDS011;58741;52.672;13.548;2024-01-27T08:28:53;3.00;;;1.50;;
71083;SDS011;58741;52.672;13.548;2024-01-27T08:31:22;2.92;;;1.33;;
71083;SDS011;58741;52.672;13.548;2024-01-27T08:33:49;1.77;;;0.73;;
71083;SDS011;58741;52.672;13.548;2024-01-27T08:36:16;5.03;;;1.33;;
71083;SDS011;58741;52.672;13.548;2024-01-27T08:38:43;7.18;;;1.92;;
71083;SDS011;58741;52.672;13.548;2024-01-27T08:41:10;8.05;;;1.20;;
71083;SDS011;58741;52.672;13.548;2024-01-27T08:43:36;6.55;;;1.95;;
71083;SDS011;58741;52.672;13.548;2024-01-27T08:46:03;4.40;;;1.50;;
71083;SDS011;58741;52.672;13.548;2024-01-27T08:48:30;2.15;;;1.23;;
71083;SDS011;58741;52.672;13.548;2024-01-27T08:50:57;4.35;;;1.05;;
71083;SDS011;58741;52.672;13.548;2024-01-27T08:53:23;3.65;;;1.05;;
71083;SDS011;58741;52.672;13.548;2024-01-27T08:55:50;15.75;;;6.45;;
71083;SDS011;58741;52.672;13.548;2024-01-27T08:58:17;57.13;;;18.42;;
71083;SDS011;58741;52.672;13.548;2024-01-27T09:00:43;31.23;;;11.50;;
71083;SDS011;58741;52.672;13.548;2024-01-27T09:03:11;13.00;;;4.32;;
71083;SDS011;58741;52.672;13.548;2024-01-27T09:05:38;9.25;;;2.95;;
71083;SDS011;58741;52.672;13.548;2024-01-27T09:08:08;6.07;;;2.05;;
71083;SDS011;58741;52.672;13.548;2024-01-27T09:10:34;11.32;;;3.22;;
71083;SDS011;58741;52.672;13.548;2024-01-27T09:13:01;10.30;;;2.85;;
71083;SDS011;58741;52.672;13.548;2024-01-27T09:15:28;4.05;;;1.83;;
71083;SDS011;58741;52.672;13.548;2024-01-27T09:20:14;4.78;;;1.77;;
71083;SDS011;58741;52.672;13.548;2024-01-27T09:22:41;6.50;;;1.98;;
71083;SDS011;58741;52.672;13.548;2024-01-27T09:25:08;7.40;;;1.30;;
71083;SDS011;58741;52.672;13.548;2024-01-27T09:27:35;2.30;;;0.95;;
71083;SDS011;58741;52.672;13.548;2024-01-27T09:30:02;6.63;;;1.98;;
71083;SDS011;58741;52.672;13.548;2024-01-27T09:32:29;5.22;;;1.15;;
71083;SDS011;58741;52.672;13.548;2024-01-27T09:34:56;6.35;;;1.20;;
71083;SDS011;58741;52.672;13.548;2024-01-27T09:37:23;2.60;;;1.25;;
71083;SDS011;58741;52.672;13.548;2024-01-27T09:39:54;2.65;;;0.95;;
71083;SDS011;58741;52.672;13.548;2024-01-27T09:42:21;3.38;;;1.23;;
71083;SDS011;58741;52.672;13.548;2024-01-27T09:44:49;8.70;;;2.67;;
71083;SDS011;58741;52.672;13.548;2024-01-27T09:47:16;6.85;;;1.98;;
71083;SDS011;58741;52.672;13.548;2024-01-27T09:49:42;3.95;;;1.33;;
71083;SDS011;58741;52.672;13.548;2024-01-27T09:52:09;8.10;;;1.67;;
71083;SDS011;58741;52.672;13.548;2024-01-27T09:54:36;5.47;;;1.45;;
71083;SDS011;58741;52.672;13.548;2024-01-27T09:57:03;6.30;;;1.90;;
71083;SDS011;58741;52.672;13.548;2024-01-27T09:59:31;7.72;;;2.80;;
71083;SDS011;58741;52.672;13.548;2024-01-27T10:01:59;5.43;;;2.22;;
71083;SDS011;58741;52.672;13.548;2024-01-27T10:04:28;5.40;;;1.92;;
71083;SDS011;58741;52.672;13.548;2024-01-27T10:06:57;20.15;;;7.18;;
71083;SDS011;58741;52.672;13.548;2024-01-27T10:09:25;13.50;;;6.15;;
71083;SDS011;58741;52.672;13.548;2024-01-27T10:11:52;18.67;;;6.40;;
71083;SDS011;58741;52.672;13.548;2024-01-27T10:14:20;10.27;;;4.07;;
71083;SDS011;58741;52.672;13.548;2024-01-27T10:16:47;5.75;;;2.63;;
71083;SDS011;58741;52.672;13.548;2024-01-27T10:19:15;11.80;;;2.70;;
71083;SDS011;58741;52.672;13.548;2024-01-27T10:21:44;12.57;;;2.15;;
71083;SDS011;58741;52.672;13.548;2024-01-27T10:24:11;6.90;;;1.83;;
71083;SDS011;58741;52.672;13.548;2024-01-27T10:26:38;9.40;;;1.30;;
71083;SDS011;58741;52.672;13.548;2024-01-27T10:29:05;7.68;;;1.73;;
71083;SDS011;58741;52.672;13.548;2024-01-27T10:31:35;6.03;;;1.05;;
71083;SDS011;58741;52.672;13.548;2024-01-27T10:34:04;8.02;;;1.75;;
71083;SDS011;58741;52.672;13.548;2024-01-27T10:36:39;7.07;;;1.55;;
71083;SDS011;58741;52.672;13.548;2024-01-27T10:39:13;7.65;;;1.35;;
71083;SDS011;58741;52.672;13.548;2024-01-27T10:41:43;3.35;;;1.20;;
71083;SDS011;58741;52.672;13.548;2024-01-27T10:44:13;6.70;;;1.02;;
71083;SDS011;58741;52.672;13.548;2024-01-27T10:46:45;5.75;;;1.23;;
71083;SDS011;58741;52.672;13.548;2024-01-27T10:49:14;7.25;;;1.17;;
71083;SDS011;58741;52.672;13.548;2024-01-27T10:51:46;4.50;;;1.30;;
71083;SDS011;58741;52.672;13.548;2024-01-27T10:54:26;6.57;;;1.40;;
71083;SDS011;58741;52.672;13.548;2024-01-27T10:56:55;2.67;;;1.02;;
71083;SDS011;58741;52.672;13.548;2024-01-27T10:59:25;2.50;;;1.02;;
71083;SDS011;58741;52.672;13.548;2024-01-27T11:01:54;2.42;;;1.42;;
71083;SDS011;58741;52.672;13.548;2024-01-27T11:04:22;6.57;;;1.40;;
71083;SDS011;58741;52.672;13.548;2024-01-27T11:06:49;3.50;;;1.13;;
71083;SDS011;58741;52.672;13.548;2024-01-27T11:09:18;3.75;;;0.80;;
71083;SDS011;58741;52.672;13.548;2024-01-27T11:11:45;2.67;;;0.82;;
71083;SDS011;58741;52.672;13.548;2024-01-27T11:14:13;4.50;;;1.50;;
71083;SDS011;58741;52.672;13.548;2024-01-27T11:16:39;8.70;;;1.70;;
71083;SDS011;58741;52.672;13.548;2024-01-27T11:19:13;4.95;;;1.48;;
71083;SDS011;58741;52.672;13.548;2024-01-27T11:21:40;3.63;;;1.02;;
71083;SDS011;58741;52.672;13.548;2024-01-27T11:24:13;9.75;;;1.55;;
71083;SDS011;58741;52.672;13.548;2024-01-27T11:26:40;3.63;;;1.02;;
71083;SDS011;58741;52.672;13.548;2024-01-27T11:29:08;3.88;;;1.25;;
71083;SDS011;58741;52.672;13.548;2024-01-27T11:31:36;7.38;;;1.38;;
71083;SDS011;58741;52.672;13.548;2024-01-27T11:34:09;7.15;;;1.23;;
71083;SDS011;58741;52.672;13.548;2024-01-27T11:36:39;3.50;;;1.00;;
71083;SDS011;58741;52.672;13.548;2024-01-27T11:39:22;6.65;;;1.33;;
71083;SDS011;58741;52.672;13.548;2024-01-27T11:41:51;5.80;;;1.98;;
71083;SDS011;58741;52.672;13.548;2024-01-27T11:44:18;6.00;;;1.67;;
71083;SDS011;58741;52.672;13.548;2024-01-27T11:46:46;6.45;;;1.52;;
71083;SDS011;58741;52.672;13.548;2024-01-27T11:49:16;1.65;;;0.88;;
71083;SDS011;58741;52.672;13.548;2024-01-27T11:51:43;3.75;;;1.50;;
71083;SDS011;58741;52.672;13.548;2024-01-27T11:54:11;2.38;;;0.93;;
71083;SDS011;58741;52.672;13.548;2024-01-27T11:56:38;6.20;;;0.93;;
71083;SDS011;58741;52.672;13.548;2024-01-27T11:59:05;4.07;;;1.42;;
71083;SDS011;58741;52.672;13.548;2024-01-27T12:01:32;2.60;;;1.23;;
71083;SDS011;58741;52.672;13.548;2024-01-27T12:03:58;2.58;;;1.20;;
71083;SDS011;58741;52.672;13.548;2024-01-27T12:06:26;5.20;;;1.52;;
71083;SDS011;58741;52.672;13.548;2024-01-27T12:08:53;3.08;;;1.00;;
71083;SDS011;58741;52.672;13.548;2024-01-27T12:11:24;2.20;;;1.20;;
71083;SDS011;58741;52.672;13.548;2024-01-27T12:13:51;3.70;;;0.90;;
71083;SDS011;58741;52.672;13.548;2024-01-27T12:16:19;2.92;;;1.27;;
71083;SDS011;58741;52.672;13.548;2024-01-27T12:18:51;3.85;;;1.23;;
71083;SDS011;58741;52.672;13.548;2024-01-27T12:21:19;7.60;;;1.27;;
71083;SDS011;58741;52.672;13.548;2024-01-27T12:26:20;6.45;;;1.15;;
71083;SDS011;58741;52.672;13.548;2024-01-27T12:28:54;5.47;;;1.25;;
71083;SDS011;58741;52.672;13.548;2024-01-27T12:31:24;6.15;;;1.85;;
71083;SDS011;58741;52.672;13.548;2024-01-27T12:33:53;6.47;;;1.30;;
71083;SDS011;58741;52.672;13.548;2024-01-27T12:36:23;1.70;;;1.02;;
71083;SDS011;58741;52.672;13.548;2024-01-27T12:39:00;3.53;;;1.75;;
71083;SDS011;58741;52.672;13.548;2024-01-27T12:41:29;3.45;;;1.55;;
71083;SDS011;58741;52.672;13.548;2024-01-27T12:43:56;2.80;;;1.15;;
71083;SDS011;58741;52.672;13.548;2024-01-27T12:46:23;3.53;;;1.38;;
71083;SDS011;58741;52.672;13.548;2024-01-27T12:48:50;11.60;;;1.55;;
71083;SDS011;58741;52.672;13.548;2024-01-27T12:51:17;3.63;;;1.35;;
71083;SDS011;58741;52.672;13.548;2024-01-27T12:53:44;6.03;;;1.25;;
71083;SDS011;58741;52.672;13.548;2024-01-27T12:56:11;6.95;;;2.05;;
71083;SDS011;58741;52.672;13.548;2024-01-27T12:58:39;3.28;;;1.27;;
71083;SDS011;58741;52.672;13.548;2024-01-27T13:01:07;0.93;;;0.65;;
71083;SDS011;58741;52.672;13.548;2024-01-27T13:03:35;3.25;;;1.35;;
71083;SDS011;58741;52.672;13.548;2024-01-27T13:06:02;3.17;;;1.10;;
71083;SDS011;58741;52.672;13.548;2024-01-27T13:08:29;3.75;;;1.55;;
71083;SDS011;58741;52.672;13.548;2024-01-27T13:10:56;3.85;;;1.17;;
71083;SDS011;58741;52.672;13.548;2024-01-27T13:13:23;5.72;;;1.20;;
71083;SDS011;58741;52.672;13.548;2024-01-27T13:15:49;1.15;;;0.75;;
71083;SDS011;58741;52.672;13.548;2024-01-27T13:18:16;3.95;;;1.13;;
71083;SDS011;58741;52.672;13.548;2024-01-27T13:20:43;6.50;;;1.80;;
71083;SDS011;58741;52.672;13.548;2024-01-27T13:23:10;1.50;;;1.20;;
71083;SDS011;58741;52.672;13.548;2024-01-27T13:25:36;3.95;;;1.33;;
71083;SDS011;58741;52.672;13.548;2024-01-27T13:28:03;4.90;;;1.08;;
71083;SDS011;58741;52.672;13.548;2024-01-27T13:30:32;13.40;;;4.85;;
71083;SDS011;58741;52.672;13.548;2024-01-27T13:32:59;13.48;;;4.03;;
71083;SDS011;58741;52.672;13.548;2024-01-27T13:35:26;3.30;;;2.35;;
71083;SDS011;58741;52.672;13.548;2024-01-27T13:37:52;8.55;;;2.47;;
71083;SDS011;58741;52.672;13.548;2024-01-27T13:40:19;5.07;;;1.95;;
71083;SDS011;58741;52.672;13.548;2024-01-27T13:42:48;3.38;;;1.88;;
71083;SDS011;58741;52.672;13.548;2024-01-27T13:45:15;5.55;;;2.28;;
71083;SDS011;58741;52.672;13.548;2024-01-27T13:47:42;4.43;;;2.00;;
71083;SDS011;58741;52.672;13.548;2024-01-27T13:50:09;6.03;;;1.38;;
71083;SDS011;58741;52.672;13.548;2024-01-27T13:52:36;8.18;;;1.90;;
71083;SDS011;58741;52.672;13.548;2024-01-27T13:55:02;4.18;;;2.25;;
71083;SDS011;58741;52.672;13.548;2024-01-27T13:57:29;4.65;;;2.20;;
71083;SDS011;58741;52.672;13.548;2024-01-27T13:59:56;7.82;;;1.98;;
71083;SDS011;58741;52.672;13.548;2024-01-27T14:02:23;7.30;;;2.05;;
71083;SDS011;58741;52.672;13.548;2024-01-27T14:04:51;13.32;;;6.00;;
71083;SDS011;58741;52.672;13.548;2024-01-27T14:07:18;9.05;;;3.25;;
71083;SDS011;58741;52.672;13.548;2024-01-27T14:09:45;7.65;;;2.22;;
71083;SDS011;58741;52.672;13.548;2024-01-27T14:12:14;6.95;;;1.83;;
71083;SDS011;58741;52.672;13.548;2024-01-27T14:14:41;8.38;;;2.83;;
71083;SDS011;58741;52.672;13.548;2024-01-27T14:17:08;9.38;;;3.17;;
71083;SDS011;58741;52.672;13.548;2024-01-27T14:19:35;9.43;;;3.78;;
71083;SDS011;58741;52.672;13.548;2024-01-27T14:22:03;12.20;;;3.50;;
71083;SDS011;58741;52.672;13.548;2024-01-27T14:24:30;18.95;;;7.50;;
71083;SDS011;58741;52.672;13.548;2024-01-27T14:26:59;10.40;;;4.80;;
71083;SDS011;58741;52.672;13.548;2024-01-27T14:29:26;6.05;;;2.88;;
71083;SDS011;58741;52.672;13.548;2024-01-27T14:31:53;1.98;;;1.25;;
71083;SDS011;58741;52.672;13.548;2024-01-27T14:34:20;6.07;;;1.75;;
71083;SDS011;58741;52.672;13.548;2024-01-27T14:36:47;7.30;;;2.97;;
71083;SDS011;58741;52.672;13.548;2024-01-27T14:39:13;8.25;;;3.20;;